Time;durP1;ratioP1;P1;durP2;ratioP2;P2;SDS_P1;SDS_P2;PMS_P1;PMS_P2;Temp;Humidity;BMP_temperature;BMP_pressure;BME280_temperature;BME280_humidity;BME280_pressure;Samples;Min_cycle;Max_cycle;Signal;HPM_P1;HPM_P2
2022/12/13 00:01:39;;;;;;;0.90;0.90;;;0.70;91.10;;;;;;4952366;28;20179;-75
2022/12/13 00:04:06;;;;;;;0.83;0.70;;;0.80;91.30;;;;;;4953990;28;20198;-75
2022/12/13 00:06:32;;;;;;;1.20;1.00;;;0.90;91.20;;;;;;4953261;28;20194;-75
2022/12/13 00:08:59;;;;;;;0.73;0.70;;;0.80;91.10;;;;;;4951348;28;20269;-75
2022/12/13 00:11:26;;;;;;;0.90;0.90;;;0.80;91.00;;;;;;4955026;28;20186;-76
2022/12/13 00:13:52;;;;;;;0.90;0.90;;;0.90;90.80;;;;;;4956351;28;20186;-76
2022/12/13 00:16:22;;;;;;;1.13;1.13;;;0.90;90.70;;;;;;4955319;28;20219;-75
2022/12/13 00:18:58;;;;;;;1.33;1.23;;;1.00;90.60;;;;;;4948121;28;20277;-75
2022/12/13 00:21:27;;;;;;;2.57;0.90;;;1.00;90.50;;;;;;4957412;28;20364;-76
2022/12/13 00:23:54;;;;;;;1.93;0.83;;;1.00;90.30;;;;;;4955325;28;20661;-76
2022/12/13 00:26:23;;;;;;;1.33;1.23;;;1.00;90.00;;;;;;4957975;28;20226;-76
2022/12/13 00:28:50;;;;;;;0.60;0.60;;;1.00;89.60;;;;;;4955788;28;20571;-76
2022/12/13 00:31:20;;;;;;;0.93;0.93;;;1.00;89.60;;;;;;4953193;28;20210;-76
2022/12/13 00:33:46;;;;;;;1.33;0.90;;;1.00;89.70;;;;;;4957168;28;20220;-75
2022/12/13 00:36:12;;;;;;;0.77;0.77;;;0.90;89.70;;;;;;4964881;28;20241;-77
2022/12/13 00:38:38;;;;;;;0.97;0.97;;;0.80;89.60;;;;;;4963099;28;20190;-76
2022/12/13 00:41:16;;;;;;;1.37;0.90;;;0.80;90.00;;;;;;4960566;28;20191;-76
2022/12/13 00:43:42;;;;;;;1.33;1.27;;;0.80;90.40;;;;;;4963103;28;20179;-76
2022/12/13 00:46:16;;;;;;;0.80;0.80;;;0.80;90.50;;;;;;4954449;28;20179;-76
2022/12/13 00:48:43;;;;;;;1.63;1.03;;;0.90;90.50;;;;;;4957018;28;20185;-75
2022/12/13 00:51:11;;;;;;;0.93;0.93;;;0.90;90.50;;;;;;4958176;28;20183;-76
2022/12/13 00:53:37;;;;;;;1.30;1.30;;;0.90;90.40;;;;;;4960691;28;20182;-76
2022/12/13 00:56:04;;;;;;;1.17;1.07;;;0.90;90.50;;;;;;4956475;28;20329;-75
2022/12/13 00:58:29;;;;;;;1.00;1.00;;;0.90;90.40;;;;;;4964943;28;20186;-77
2022/12/13 01:01:03;;;;;;;2.10;1.07;;;0.90;90.40;;;;;;4959797;28;20221;-75
2022/12/13 01:03:29;;;;;;;0.90;0.90;;;1.00;90.30;;;;;;4953492;28;20179;-76
2022/12/13 01:05:54;;;;;;;1.60;1.50;;;1.00;90.30;;;;;;4942345;28;20595;-76
2022/12/13 01:08:20;;;;;;;1.13;1.13;;;1.00;90.20;;;;;;4969203;28;20263;-76
2022/12/13 01:10:46;;;;;;;1.03;1.03;;;1.00;90.30;;;;;;4967443;28;20784;-76
2022/12/13 01:13:13;;;;;;;1.43;1.40;;;1.00;90.00;;;;;;4971901;28;20213;-76
2022/12/13 01:15:43;;;;;;;1.53;1.43;;;1.00;89.70;;;;;;4969237;28;20186;-76
2022/12/13 01:18:10;;;;;;;1.30;1.30;;;0.90;89.80;;;;;;4964929;28;20246;-76
2022/12/13 01:20:36;;;;;;;1.17;1.00;;;0.90;89.90;;;;;;4960084;28;20788;-75
2022/12/13 01:23:03;;;;;;;1.07;0.93;;;0.80;89.70;;;;;;4962015;28;20203;-75
2022/12/13 01:25:28;;;;;;;1.20;1.10;;;0.70;89.70;;;;;;4954588;28;20269;-75
2022/12/13 01:27:54;;;;;;;1.37;0.90;;;0.80;89.80;;;;;;4959526;28;20722;-75
2022/12/13 01:30:20;;;;;;;1.90;1.60;;;0.80;89.80;;;;;;4966415;28;20756;-77
2022/12/13 01:32:46;;;;;;;1.80;1.20;;;0.90;89.70;;;;;;4960626;28;20198;-75
2022/12/13 01:35:12;;;;;;;0.63;0.63;;;0.90;89.60;;;;;;4961643;28;20566;-76
2022/12/13 01:37:38;;;;;;;1.20;1.20;;;0.90;89.60;;;;;;4966116;28;20686;-76
2022/12/13 01:40:04;;;;;;;1.20;1.10;;;0.90;89.60;;;;;;4961825;28;20233;-76
2022/12/13 01:42:30;;;;;;;1.43;1.03;;;0.90;89.50;;;;;;4959132;28;20681;-75
2022/12/13 01:45:03;;;;;;;1.70;1.70;;;0.90;89.30;;;;;;4962442;28;20190;-77
2022/12/13 01:47:40;;;;;;;2.13;0.87;;;0.80;89.20;;;;;;4953083;28;20179;-75
2022/12/13 01:50:12;;;;;;;1.37;1.37;;;0.80;89.20;;;;;;4962141;28;20190;-75
2022/12/13 01:52:39;;;;;;;2.10;1.07;;;0.80;89.30;;;;;;4954173;28;20190;-76
2022/12/13 01:55:07;;;;;;;0.90;0.90;;;0.80;89.40;;;;;;4963114;28;20198;-75
2022/12/13 01:57:35;;;;;;;1.60;1.50;;;0.80;89.40;;;;;;4966847;28;20233;-76
2022/12/13 02:00:03;;;;;;;0.87;0.70;;;0.80;89.40;;;;;;4962999;28;20230;-75
2022/12/13 02:02:28;;;;;;;1.23;1.23;;;0.80;89.30;;;;;;4961833;28;20191;-75
2022/12/13 02:05:30;;;;;;;0.97;0.97;;;0.80;89.40;;;;;;4956527;28;20195;-75
2022/12/13 02:07:58;;;;;;;0.77;0.70;;;0.80;89.40;;;;;;4867015;29;20201;-76
2022/12/13 02:10:25;;;;;;;1.80;1.00;;;0.80;89.40;;;;;;4872539;29;20205;-76
2022/12/13 02:12:51;;;;;;;1.70;1.60;;;0.80;89.40;;;;;;4880238;29;20193;-76
2022/12/13 02:15:18;;;;;;;2.40;1.10;;;0.80;89.20;;;;;;4879233;29;20197;-76
2022/12/13 02:18:05;;;;;;;2.30;1.20;;;0.70;89.30;;;;;;4881029;29;20237;-76
2022/12/13 02:21:03;;;;;;;0.73;0.73;;;0.70;89.30;;;;;;4878020;29;20845;-76
2022/12/13 02:23:49;;;;;;;1.17;1.00;;;0.70;89.30;;;;;;4877473;29;20186;-76
2022/12/13 02:26:45;;;;;;;1.13;1.00;;;0.60;89.40;;;;;;4874667;29;20285;-76
2022/12/13 02:29:29;;;;;;;0.70;0.70;;;0.60;89.40;;;;;;4877843;29;20221;-77
2022/12/13 02:32:06;;;;;;;1.60;1.50;;;0.60;89.40;;;;;;4866576;29;20786;-76
2022/12/13 02:35:06;;;;;;;1.20;1.20;;;0.60;89.40;;;;;;4874486;29;20190;-75
2022/12/13 02:37:52;;;;;;;1.00;1.00;;;0.50;89.40;;;;;;4818395;29;20204;-77
2022/12/13 02:40:46;;;;;;;0.67;0.67;;;0.50;89.70;;;;;;4766643;30;20253;-77
2022/12/13 02:43:17;;;;;;;1.30;1.20;;;0.50;89.90;;;;;;4769402;30;20272;-77
2022/12/13 02:45:49;;;;;;;1.63;0.90;;;0.50;90.00;;;;;;4795708;29;20201;-77
2022/12/13 02:48:22;;;;;;;2.10;1.00;;;0.50;90.10;;;;;;4800185;29;20204;-75
2022/12/13 02:50:51;;;;;;;1.87;1.60;;;0.50;90.10;;;;;;4798238;29;20736;-76
2022/12/13 02:53:20;;;;;;;1.33;1.00;;;0.50;90.10;;;;;;4803112;29;20204;-76
2022/12/13 02:55:46;;;;;;;0.67;0.63;;;0.50;90.20;;;;;;4803112;29;20224;-76
2022/12/13 02:58:15;;;;;;;1.90;1.27;;;0.40;90.10;;;;;;4807604;29;20236;-77
2022/12/13 03:00:56;;;;;;;1.23;1.13;;;0.40;90.20;;;;;;4804528;29;20241;-76
2022/12/13 03:03:28;;;;;;;2.20;1.13;;;0.40;90.30;;;;;;4801584;29;20204;-75
2022/12/13 03:09:24;;;;;;;2.63;1.77;;;0.40;90.40;;;;;;4802951;29;20208;-77
2022/12/13 03:15:21;;;;;;;1.30;1.20;;;0.40;90.30;;;;;;4845944;29;20292;-76
2022/12/13 03:17:52;;;;;;;1.43;1.10;;;0.30;90.10;;;;;;4932870;28;20207;-75
2022/12/13 03:20:24;;;;;;;1.90;1.80;;;0.30;90.10;;;;;;4966447;28;20214;-76
2022/12/13 03:22:51;;;;;;;1.47;1.37;;;0.30;90.10;;;;;;4957834;28;20187;-76
2022/12/13 03:25:17;;;;;;;1.60;1.50;;;0.30;90.00;;;;;;4954685;28;20187;-76
2022/12/13 03:27:43;;;;;;;1.43;1.33;;;0.20;90.20;;;;;;4962616;28;20187;-76
2022/12/13 03:30:09;;;;;;;1.60;1.50;;;0.20;90.10;;;;;;4964573;28;20189;-76
2022/12/13 03:32:35;;;;;;;2.83;1.27;;;0.10;90.10;;;;;;4942901;28;20183;-76
2022/12/13 03:35:01;;;;;;;1.80;1.70;;;0.00;90.30;;;;;;4960177;28;20301;-76
2022/12/13 03:37:27;;;;;;;1.40;1.30;;;0.00;90.30;;;;;;4969861;28;20607;-76
2022/12/13 03:39:52;;;;;;;1.23;1.23;;;0.00;90.30;;;;;;4949976;28;20356;-76
2022/12/13 03:42:18;;;;;;;3.20;1.63;;;-0.10;90.30;;;;;;4965851;28;20197;-76
2022/12/13 03:44:44;;;;;;;2.17;0.97;;;-0.10;90.30;;;;;;4946367;28;20186;-76
2022/12/13 03:47:10;;;;;;;0.67;0.67;;;-0.10;90.30;;;;;;4964615;28;20191;-75
2022/12/13 03:49:35;;;;;;;2.33;2.13;;;-0.10;90.30;;;;;;4949018;28;20206;-76
2022/12/13 03:52:01;;;;;;;3.63;1.43;;;-0.20;90.30;;;;;;4968495;28;20215;-76
2022/12/13 03:54:27;;;;;;;1.10;1.10;;;-0.20;90.30;;;;;;4967172;28;20254;-77
2022/12/13 03:56:52;;;;;;;0.73;0.73;;;-0.20;90.40;;;;;;4970352;28;20210;-76
2022/12/13 03:59:18;;;;;;;1.83;1.33;;;-0.20;90.30;;;;;;4972966;28;20210;-77
2022/12/13 04:01:44;;;;;;;1.27;1.27;;;-0.30;90.30;;;;;;4970494;28;20175;-76
2022/12/13 04:04:09;;;;;;;1.27;1.17;;;-0.20;90.30;;;;;;4967576;28;20182;-76
2022/12/13 04:06:35;;;;;;;1.77;1.53;;;-0.20;90.30;;;;;;4948622;28;20635;-75
2022/12/13 04:09:01;;;;;;;1.47;1.00;;;-0.20;90.30;;;;;;4963070;28;20231;-76
2022/12/13 04:14:11;;;;;;;1.17;1.17;;;-0.30;90.20;;;;;;4965458;28;20193;-76
2022/12/13 04:16:37;;;;;;;1.33;1.23;;;-0.30;90.10;;;;;;4962548;28;20191;-76
2022/12/13 04:19:02;;;;;;;0.90;0.90;;;-0.30;90.10;;;;;;4961597;28;20190;-76
2022/12/13 04:21:28;;;;;;;1.40;1.30;;;-0.30;90.10;;;;;;4947746;28;20185;-76
2022/12/13 04:23:54;;;;;;;1.37;1.13;;;-0.30;90.00;;;;;;4968161;28;20190;-78
2022/12/13 04:26:19;;;;;;;1.20;1.13;;;-0.30;90.00;;;;;;4962796;28;20323;-78
2022/12/13 04:28:45;;;;;;;0.97;0.97;;;-0.40;90.00;;;;;;4961580;28;20316;-76
2022/12/13 04:31:11;;;;;;;2.33;1.90;;;-0.40;90.00;;;;;;4950269;28;20242;-76
2022/12/13 04:33:36;;;;;;;2.47;1.43;;;-0.40;90.10;;;;;;4965590;28;20186;-76
2022/12/13 04:36:03;;;;;;;1.03;1.03;;;-0.40;90.10;;;;;;4961175;28;20238;-76
2022/12/13 04:38:28;;;;;;;1.27;1.13;;;-0.40;90.10;;;;;;4962254;28;20179;-76
2022/12/13 04:41:04;;;;;;;2.23;1.40;;;-0.40;90.00;;;;;;4970106;28;20262;-77
2022/12/13 04:43:30;;;;;;;1.93;1.83;;;-0.40;90.00;;;;;;4967089;28;20262;-77
2022/12/13 04:45:56;;;;;;;1.97;1.87;;;-0.40;90.20;;;;;;4969550;28;20176;-77
2022/12/13 04:48:21;;;;;;;1.97;1.23;;;-0.40;90.00;;;;;;4968938;28;20723;-77
2022/12/13 04:50:47;;;;;;;1.40;1.30;;;-0.50;90.10;;;;;;4951657;28;20198;-77
2022/12/13 04:53:16;;;;;;;1.40;1.30;;;-0.50;90.00;;;;;;4969604;28;20269;-77
2022/12/13 04:55:41;;;;;;;0.90;0.90;;;-0.50;90.10;;;;;;4962733;28;20191;-77
2022/12/13 04:58:07;;;;;;;2.10;1.07;;;-0.50;90.20;;;;;;4966527;28;20187;-78
2022/12/13 05:00:33;;;;;;;1.63;1.37;;;-0.60;90.10;;;;;;4964643;28;20213;-77
2022/12/13 05:02:58;;;;;;;4.53;1.93;;;-0.60;90.10;;;;;;4955067;28;20193;-74
2022/12/13 05:05:24;;;;;;;1.67;1.63;;;-0.60;90.20;;;;;;4949267;28;20203;-74
2022/12/13 05:07:50;;;;;;;1.80;1.30;;;-0.60;90.20;;;;;;4955517;28;20194;-74
2022/12/13 05:10:16;;;;;;;1.33;1.33;;;-0.60;90.10;;;;;;4947017;28;20200;-74
2022/12/13 05:12:42;;;;;;;2.30;1.77;;;-0.70;90.10;;;;;;4950619;28;20218;-74
2022/12/13 05:15:08;;;;;;;1.37;1.33;;;-0.80;90.30;;;;;;4950579;28;21734;-74
2022/12/13 05:17:33;;;;;;;1.87;1.40;;;-0.70;90.30;;;;;;4948230;28;20259;-74
2022/12/13 05:19:59;;;;;;;1.20;1.20;;;-0.70;90.30;;;;;;4952478;28;20365;-74
2022/12/13 05:22:25;;;;;;;1.50;1.40;;;-0.80;90.20;;;;;;4949373;28;20700;-74
2022/12/13 05:24:51;;;;;;;1.50;1.20;;;-0.80;89.90;;;;;;4954440;28;20193;-74
2022/12/13 05:27:17;;;;;;;1.53;1.43;;;-0.80;89.50;;;;;;4947402;28;20187;-74
2022/12/13 05:29:42;;;;;;;2.53;1.53;;;-0.80;89.60;;;;;;4954479;28;20239;-75
2022/12/13 05:32:08;;;;;;;1.40;1.40;;;-0.80;89.50;;;;;;4931237;28;20587;-76
2022/12/13 05:34:34;;;;;;;1.53;1.33;;;-0.80;88.90;;;;;;4934700;28;20191;-75
2022/12/13 05:36:59;;;;;;;2.07;1.50;;;-0.80;88.90;;;;;;4949907;28;20186;-75
2022/12/13 05:39:25;;;;;;;2.57;1.90;;;-0.80;89.10;;;;;;4954491;28;20207;-76
2022/12/13 05:41:51;;;;;;;3.40;2.13;;;-0.90;88.40;;;;;;4959467;28;20268;-76
2022/12/13 05:44:17;;;;;;;2.67;1.57;;;-0.90;88.30;;;;;;4951083;28;20191;-77
2022/12/13 05:46:42;;;;;;;2.03;1.43;;;-1.00;88.40;;;;;;4949309;28;20187;-77
2022/12/13 05:49:08;;;;;;;3.33;1.93;;;-0.90;88.50;;;;;;4949931;28;20191;-77
2022/12/13 05:51:34;;;;;;;1.90;1.53;;;-0.90;88.50;;;;;;4949790;28;20187;-77
2022/12/13 05:54:00;;;;;;;2.73;1.37;;;-0.90;88.40;;;;;;4937866;28;20214;-74
2022/12/13 05:56:25;;;;;;;0.63;0.63;;;-0.80;88.40;;;;;;4954052;28;20221;-77
2022/12/13 05:58:53;;;;;;;4.27;1.30;;;-0.80;88.30;;;;;;4955405;28;20186;-76
2022/12/13 06:01:19;;;;;;;2.17;1.83;;;-0.70;88.30;;;;;;4951715;28;20238;-77
2022/12/13 06:03:45;;;;;;;1.10;1.10;;;-0.70;88.30;;;;;;4952109;28;20194;-81
2022/12/13 06:06:11;;;;;;;2.40;1.53;;;-0.70;88.30;;;;;;4957002;28;20203;-77
2022/12/13 06:08:38;;;;;;;1.77;1.63;;;-0.80;87.70;;;;;;4957928;28;20221;-77
2022/12/13 06:11:05;;;;;;;1.00;1.00;;;-0.70;88.10;;;;;;4950364;28;20202;-75
2022/12/13 06:13:31;;;;;;;2.27;2.07;;;-0.70;88.10;;;;;;4953889;28;20277;-76
2022/12/13 06:16:04;;;;;;;1.67;1.57;;;-0.60;88.00;;;;;;4952076;28;20278;-76
2022/12/13 06:18:32;;;;;;;1.47;1.47;;;-0.70;87.60;;;;;;4959942;28;20183;-77
2022/12/13 06:21:00;;;;;;;2.47;2.37;;;-0.70;87.60;;;;;;4936556;28;20218;-77
2022/12/13 06:23:26;;;;;;;1.90;1.77;;;-0.60;87.70;;;;;;4958734;28;20190;-77
2022/12/13 06:25:53;;;;;;;3.70;2.20;;;-0.60;87.70;;;;;;4954823;28;20194;-76
2022/12/13 06:28:20;;;;;;;3.80;1.77;;;-0.60;87.70;;;;;;4957852;28;20191;-77
2022/12/13 06:30:45;;;;;;;2.40;2.20;;;-0.60;87.60;;;;;;4953892;28;20265;-76
2022/12/13 06:33:11;;;;;;;2.97;2.57;;;-0.60;87.40;;;;;;4962405;28;20270;-76
2022/12/13 06:35:37;;;;;;;2.37;2.17;;;-0.50;87.70;;;;;;4954278;28;20186;-77
2022/12/13 06:38:03;;;;;;;3.07;1.73;;;-0.50;87.70;;;;;;4957670;28;20279;-77
2022/12/13 06:40:29;;;;;;;2.10;1.37;;;-0.50;87.90;;;;;;4937150;28;20215;-77
2022/12/13 06:42:56;;;;;;;3.27;1.90;;;-0.40;87.90;;;;;;4957532;28;20238;-76
2022/12/13 06:45:22;;;;;;;2.93;2.73;;;-0.40;87.50;;;;;;4949083;28;20226;-76
2022/12/13 06:47:47;;;;;;;3.03;2.10;;;-0.40;87.60;;;;;;4954140;28;20186;-77
2022/12/13 06:50:13;;;;;;;2.17;1.37;;;-0.30;87.40;;;;;;4953655;28;20200;-76
2022/12/13 06:52:39;;;;;;;2.13;2.00;;;-0.30;87.60;;;;;;4944581;28;20183;-81
2022/12/13 06:55:05;;;;;;;4.27;2.23;;;-0.20;87.70;;;;;;4955332;28;20732;-80
2022/12/13 06:57:32;;;;;;;1.57;1.47;;;-0.30;87.30;;;;;;4952839;28;20656;-79
2022/12/13 06:59:59;;;;;;;2.70;1.70;;;-0.20;87.10;;;;;;4942300;28;20637;-77
2022/12/13 07:02:24;;;;;;;1.27;1.27;;;-0.20;86.90;;;;;;4949847;28;20249;-76
2022/12/13 07:04:50;;;;;;;1.63;1.00;;;-0.10;86.90;;;;;;4953308;28;20893;-76
2022/12/13 07:07:16;;;;;;;1.77;0.87;;;-0.10;87.40;;;;;;4951933;28;20214;-75
2022/12/13 07:09:41;;;;;;;1.63;1.20;;;0.00;87.60;;;;;;4954468;28;20197;-75
2022/12/13 07:12:07;;;;;;;1.27;1.10;;;0.10;88.00;;;;;;4954115;28;20187;-77
2022/12/13 07:14:33;;;;;;;2.33;2.03;;;0.20;88.30;;;;;;4962208;28;20191;-77
2022/12/13 07:16:58;;;;;;;1.60;1.50;;;0.40;88.70;;;;;;4957241;28;20183;-75
2022/12/13 07:19:24;;;;;;;1.30;1.30;;;0.60;88.80;;;;;;4963596;28;20260;-77
2022/12/13 07:21:50;;;;;;;1.20;1.20;;;0.80;88.70;;;;;;4955159;28;20436;-76
2022/12/13 07:24:16;;;;;;;2.87;1.87;;;0.90;88.20;;;;;;4945765;28;20661;-82
2022/12/13 07:26:42;;;;;;;2.47;2.00;;;1.10;87.60;;;;;;4955800;28;20215;-77
2022/12/13 07:29:07;;;;;;;3.47;2.37;;;1.30;87.10;;;;;;4955886;28;20182;-77
2022/12/13 07:31:35;;;;;;;2.43;2.27;;;1.40;87.00;;;;;;4948532;28;20689;-77
2022/12/13 07:34:01;;;;;;;2.67;2.10;;;1.60;86.50;;;;;;4955657;28;20848;-77
2022/12/13 07:36:26;;;;;;;3.60;2.40;;;1.70;86.20;;;;;;4953873;28;20278;-76
2022/12/13 07:38:54;;;;;;;3.30;3.00;;;1.80;86.10;;;;;;4956879;28;20214;-77
2022/12/13 07:41:21;;;;;;;4.17;2.97;;;1.90;84.50;;;;;;4951880;28;20230;-76
2022/12/13 07:43:46;;;;;;;4.63;2.00;;;2.00;84.50;;;;;;4953025;28;20191;-77
2022/12/13 07:46:12;;;;;;;3.27;2.13;;;2.10;84.40;;;;;;4938940;28;21415;-76
2022/12/13 07:48:38;;;;;;;4.80;3.00;;;2.20;84.20;;;;;;4955743;28;20202;-77
2022/12/13 07:51:06;;;;;;;3.30;2.50;;;2.30;84.20;;;;;;4955968;28;20253;-77
2022/12/13 07:53:33;;;;;;;2.70;2.53;;;2.40;83.40;;;;;;4952561;28;20329;-77
2022/12/13 07:56:08;;;;;;;1.93;1.77;;;2.50;83.30;;;;;;4954783;28;20576;-77
2022/12/13 07:58:35;;;;;;;1.80;1.70;;;2.50;83.10;;;;;;4953248;28;20197;-78
2022/12/13 08:01:03;;;;;;;2.33;1.97;;;2.70;82.60;;;;;;4952142;28;20280;-78
2022/12/13 08:03:28;;;;;;;3.67;2.00;;;2.80;82.10;;;;;;4958334;28;20582;-77
2022/12/13 08:06:09;;;;;;;2.70;2.50;;;2.90;82.50;;;;;;4959432;28;20205;-76
2022/12/13 08:08:36;;;;;;;2.27;2.13;;;3.10;82.70;;;;;;4953794;28;20178;-77
2022/12/13 08:11:14;;;;;;;3.27;3.03;;;3.30;82.60;;;;;;4952032;28;20190;-76
2022/12/13 08:13:40;;;;;;;4.53;3.03;;;3.50;82.40;;;;;;4951734;28;20186;-78
2022/12/13 08:16:09;;;;;;;5.20;3.70;;;3.70;81.00;;;;;;4958619;28;20759;-77
2022/12/13 08:18:35;;;;;;;3.33;2.97;;;3.80;80.10;;;;;;4937130;28;20223;-77
2022/12/13 08:21:03;;;;;;;4.37;2.80;;;3.90;80.40;;;;;;4951484;28;20213;-78
2022/12/13 08:23:30;;;;;;;3.03;2.70;;;4.00;78.50;;;;;;4954403;28;20194;-77
2022/12/13 08:25:58;;;;;;;4.53;3.53;;;4.00;77.10;;;;;;4953078;28;20174;-77
2022/12/13 08:28:24;;;;;;;6.50;3.73;;;3.90;75.30;;;;;;4953656;28;20172;-77
2022/12/13 08:30:51;;;;;;;4.27;3.87;;;3.90;75.50;;;;;;4954383;28;20190;-79
2022/12/13 08:33:17;;;;;;;4.37;3.10;;;3.90;76.40;;;;;;4953171;28;20215;-78
2022/12/13 08:35:43;;;;;;;4.63;3.27;;;4.00;77.10;;;;;;4956710;28;20185;-78
2022/12/13 08:38:09;;;;;;;3.67;3.37;;;4.10;77.30;;;;;;4955016;28;20183;-78
2022/12/13 08:40:35;;;;;;;4.47;4.07;;;4.30;77.90;;;;;;4954592;28;20250;-77
2022/12/13 08:43:01;;;;;;;6.60;4.07;;;4.60;79.00;;;;;;4955446;28;20214;-78
2022/12/13 08:45:27;;;;;;;4.80;3.93;;;5.00;78.60;;;;;;4948072;28;20236;-77
2022/12/13 08:47:55;;;;;;;5.20;4.30;;;5.40;77.00;;;;;;4955222;28;20178;-77
2022/12/13 08:50:21;;;;;;;4.77;3.53;;;5.80;75.40;;;;;;4949510;28;20194;-77
2022/12/13 08:52:47;;;;;;;5.53;3.57;;;6.20;73.20;;;;;;4951192;28;20218;-77
2022/12/13 08:55:14;;;;;;;4.23;3.60;;;6.60;73.30;;;;;;4956145;28;21325;-77
2022/12/13 08:57:41;;;;;;;4.37;3.97;;;7.00;72.60;;;;;;4957557;28;20561;-77
2022/12/13 09:00:10;;;;;;;5.40;4.30;;;7.30;70.60;;;;;;4959040;28;20352;-77
2022/12/13 09:02:36;;;;;;;6.13;4.03;;;7.50;69.60;;;;;;4956651;28;20205;-77
2022/12/13 09:05:02;;;;;;;5.63;4.93;;;7.80;70.80;;;;;;4959631;28;20195;-77
2022/12/13 09:07:28;;;;;;;4.33;3.93;;;8.10;70.70;;;;;;4959130;28;20189;-77
2022/12/13 09:09:53;;;;;;;6.40;4.77;;;8.50;67.90;;;;;;4958150;28;20187;-77
2022/12/13 09:12:19;;;;;;;5.80;4.93;;;8.80;67.00;;;;;;4952624;28;20179;-75
2022/12/13 09:14:45;;;;;;;5.20;4.70;;;9.20;68.10;;;;;;4954081;28;20186;-76
2022/12/13 09:17:15;;;;;;;8.60;5.73;;;9.60;67.80;;;;;;4953333;28;20175;-77
2022/12/13 09:19:41;;;;;;;7.10;4.90;;;9.90;65.00;;;;;;4956808;28;20215;-77
2022/12/13 09:22:06;;;;;;;7.20;5.18;;;10.20;65.10;;;;;;4956488;28;20265;-77
2022/12/13 09:24:32;;;;;;;7.47;5.15;;;10.50;65.50;;;;;;4957290;28;20311;-78
2022/12/13 09:26:58;;;;;;;5.50;4.95;;;10.90;65.40;;;;;;4953472;28;20524;-76
2022/12/13 09:29:24;;;;;;;5.40;4.85;;;11.30;65.30;;;;;;4958067;28;20187;-75
2022/12/13 09:31:50;;;;;;;7.05;4.57;;;11.70;61.10;;;;;;4953884;28;20186;-77
2022/12/13 09:34:15;;;;;;;7.15;4.88;;;11.70;61.10;;;;;;4956688;28;20186;-77
2022/12/13 09:36:41;;;;;;;4.10;3.83;;;11.80;61.80;;;;;;4960416;28;20265;-76
2022/12/13 09:39:08;;;;;;;4.85;4.35;;;11.90;60.90;;;;;;4960287;28;20189;-76
2022/12/13 09:41:48;;;;;;;4.75;4.30;;;12.10;61.70;;;;;;4957481;28;20187;-76
2022/12/13 09:44:27;;;;;;;4.80;4.38;;;12.30;60.60;;;;;;4961769;28;20193;-75
2022/12/13 09:46:54;;;;;;;5.60;4.47;;;12.50;59.40;;;;;;4959504;28;20191;-73
2022/12/13 09:49:20;;;;;;;6.80;5.65;;;12.60;60.30;;;;;;4937589;28;20622;-75
2022/12/13 09:51:52;;;;;;;7.43;5.85;;;12.50;58.70;;;;;;4951719;28;20175;-75
2022/12/13 09:54:21;;;;;;;5.57;4.90;;;12.30;60.00;;;;;;4955479;28;20639;-75
2022/12/13 09:56:49;;;;;;;5.22;4.53;;;12.40;61.30;;;;;;4950909;28;20183;-75
2022/12/13 09:59:17;;;;;;;6.43;5.45;;;12.60;61.50;;;;;;4952462;28;20214;-75
2022/12/13 10:01:44;;;;;;;5.60;5.05;;;13.00;61.20;;;;;;4956707;28;20210;-77
2022/12/13 10:04:13;;;;;;;7.38;4.78;;;13.40;59.90;;;;;;4955588;28;20206;-76
2022/12/13 10:06:40;;;;;;;5.10;4.22;;;13.80;59.40;;;;;;4955995;28;20217;-76
2022/12/13 10:09:09;;;;;;;4.38;3.72;;;14.20;59.30;;;;;;4951764;28;20182;-75
2022/12/13 10:11:35;;;;;;;5.55;3.67;;;14.50;57.90;;;;;;4953364;28;20233;-76
2022/12/13 10:14:08;;;;;;;4.45;3.92;;;14.70;58.30;;;;;;4952917;28;20195;-77
2022/12/13 10:16:34;;;;;;;5.47;4.97;;;14.80;57.40;;;;;;4952493;28;20266;-75
2022/12/13 10:19:02;;;;;;;4.50;4.13;;;14.80;56.70;;;;;;4953042;28;20271;-76
2022/12/13 10:21:35;;;;;;;4.43;4.03;;;14.80;58.10;;;;;;4951964;28;20290;-75
2022/12/13 10:24:26;;;;;;;4.47;4.10;;;14.90;58.40;;;;;;4951294;28;20202;-76
2022/12/13 10:26:53;;;;;;;5.20;4.68;;;15.10;57.60;;;;;;4953402;28;20190;-76
2022/12/13 10:29:19;;;;;;;4.85;4.30;;;15.30;56.90;;;;;;4953642;28;21066;-77
2022/12/13 10:31:49;;;;;;;4.72;4.32;;;15.60;56.20;;;;;;4957772;28;20187;-76
2022/12/13 10:34:28;;;;;;;4.63;4.22;;;15.70;55.00;;;;;;4954197;28;20284;-75
2022/12/13 10:36:53;;;;;;;5.35;4.88;;;15.70;56.10;;;;;;4957340;28;20201;-76
2022/12/13 10:39:39;;;;;;;4.63;4.20;;;15.40;53.30;;;;;;4961266;28;20586;-76
2022/12/13 10:42:12;;;;;;;4.57;4.18;;;15.30;54.30;;;;;;4952218;28;20179;-75
2022/12/13 10:44:38;;;;;;;3.90;3.60;;;15.30;54.60;;;;;;4952023;28;20476;-75
2022/12/13 10:47:15;;;;;;;3.95;3.65;;;15.30;55.30;;;;;;4955649;28;20262;-75
2022/12/13 10:50:00;;;;;;;3.80;3.50;;;15.20;54.00;;;;;;4957027;28;20337;-75
2022/12/13 10:52:40;;;;;;;5.07;4.60;;;14.90;52.40;;;;;;4938232;28;20196;-74
2022/12/13 10:55:31;;;;;;;5.03;4.43;;;14.70;54.50;;;;;;4958707;28;20225;-74
2022/12/13 10:58:08;;;;;;;6.03;5.38;;;14.40;54.80;;;;;;4952240;28;20301;-76
2022/12/13 11:00:45;;;;;;;5.70;5.05;;;13.80;52.70;;;;;;4955228;28;20215;-75
2022/12/13 11:03:32;;;;;;;7.22;4.57;;;13.70;56.00;;;;;;4952984;28;20214;-75
2022/12/13 11:06:16;;;;;;;4.93;4.53;;;13.40;56.10;;;;;;4940422;28;20213;-75
2022/12/13 11:08:43;;;;;;;4.97;4.50;;;13.40;57.00;;;;;;4950046;28;20187;-73
2022/12/13 11:11:11;;;;;;;6.63;4.43;;;13.40;55.80;;;;;;4932414;28;20195;-76
2022/12/13 11:13:45;;;;;;;7.60;5.85;;;13.50;54.80;;;;;;4954445;28;20201;-76
2022/12/13 11:16:24;;;;;;;7.72;6.38;;;13.50;56.30;;;;;;4953725;28;20215;-76
2022/12/13 11:18:54;;;;;;;10.45;6.70;;;13.60;55.40;;;;;;4952443;28;20193;-75
2022/12/13 11:21:28;;;;;;;5.82;5.10;;;13.60;54.60;;;;;;4950961;28;20241;-75
2022/12/13 11:23:59;;;;;;;6.57;5.30;;;13.70;55.60;;;;;;4948467;28;20241;-75
2022/12/13 11:26:27;;;;;;;7.68;5.85;;;13.70;56.10;;;;;;4955136;28;20191;-76
2022/12/13 11:29:14;;;;;;;5.15;4.40;;;13.90;55.90;;;;;;4952300;28;20907;-76
2022/12/13 11:32:01;;;;;;;5.18;4.70;;;14.00;56.50;;;;;;4954570;28;20665;-76
2022/12/13 11:34:44;;;;;;;4.57;4.10;;;14.20;55.50;;;;;;4957286;28;20802;-76
2022/12/13 11:37:32;;;;;;;3.88;3.58;;;14.40;53.80;;;;;;4954695;28;20186;-76
2022/12/13 11:40:21;;;;;;;3.88;3.22;;;14.40;54.80;;;;;;4958576;28;20313;-77
2022/12/13 11:43:01;;;;;;;4.90;4.18;;;14.30;52.20;;;;;;4951407;28;20219;-76
2022/12/13 11:45:30;;;;;;;4.90;4.43;;;14.00;53.50;;;;;;4957513;28;20179;-76
2022/12/13 11:48:20;;;;;;;4.22;3.92;;;13.80;53.70;;;;;;4956790;28;20267;-74
2022/12/13 11:50:49;;;;;;;3.40;3.20;;;13.60;53.80;;;;;;4949326;28;20182;-76
2022/12/13 11:53:21;;;;;;;3.65;3.35;;;13.40;54.50;;;;;;4952235;28;20194;-77
2022/12/13 11:56:09;;;;;;;4.57;4.25;;;13.20;52.60;;;;;;4954264;28;20178;-77
2022/12/13 11:59:18;;;;;;;4.70;4.07;;;13.10;53.40;;;;;;4949901;28;20266;-77
2022/12/13 12:01:48;;;;;;;6.03;4.80;;;13.10;54.00;;;;;;4956569;28;20195;-76
2022/12/13 12:04:33;;;;;;;5.72;4.85;;;13.00;53.60;;;;;;4955963;28;20678;-76
2022/12/13 12:07:13;;;;;;;5.82;4.97;;;12.80;54.80;;;;;;4954516;28;20195;-76
2022/12/13 12:09:46;;;;;;;5.00;4.55;;;12.80;55.90;;;;;;4954867;28;20182;-77
2022/12/13 12:12:21;;;;;;;6.20;5.15;;;12.80;55.40;;;;;;4956466;28;20192;-76
2022/12/13 12:14:59;;;;;;;6.63;5.53;;;12.70;52.90;;;;;;4953154;28;20189;-77
2022/12/13 12:17:25;;;;;;;5.00;4.60;;;12.50;53.90;;;;;;4948733;28;20759;-77
2022/12/13 12:19:57;;;;;;;4.97;4.57;;;12.60;55.30;;;;;;4952870;28;20264;-77
2022/12/13 12:22:22;;;;;;;4.40;4.03;;;12.50;55.70;;;;;;4934478;28;20652;-76
2022/12/13 12:25:18;;;;;;;5.93;5.03;;;12.40;56.10;;;;;;4936468;28;20193;-77
2022/12/13 12:28:03;;;;;;;5.75;4.95;;;12.30;53.10;;;;;;4951951;28;20229;-77
2022/12/13 12:30:41;;;;;;;4.88;4.15;;;12.20;52.50;;;;;;4951851;28;20198;-77
2022/12/13 12:33:33;;;;;;;5.72;4.28;;;12.00;53.40;;;;;;4931818;28;20584;-75
2022/12/13 12:36:14;;;;;;;6.32;4.18;;;11.80;55.20;;;;;;4938300;28;20333;-75
2022/12/13 12:38:59;;;;;;;5.85;3.92;;;11.70;54.10;;;;;;4957942;28;20218;-75
2022/12/13 12:41:31;;;;;;;6.15;3.55;;;11.50;56.00;;;;;;4958610;28;20218;-76
2022/12/13 12:44:06;;;;;;;3.63;3.33;;;11.50;55.50;;;;;;4956708;28;20194;-76
2022/12/13 12:47:02;;;;;;;3.92;3.53;;;11.30;54.20;;;;;;4952814;28;20232;-76
2022/12/13 12:49:43;;;;;;;4.18;3.72;;;10.70;53.10;;;;;;4956067;28;20197;-75
2022/12/13 12:52:08;;;;;;;5.88;4.47;;;10.20;54.80;;;;;;4958363;28;20183;-76
2022/12/13 12:55:11;;;;;;;6.40;5.38;;;10.10;55.70;;;;;;4952733;28;20555;-76
2022/12/13 12:57:45;;;;;;;7.10;5.07;;;9.90;56.30;;;;;;4956636;28;20237;-76
2022/12/13 13:00:12;;;;;;;4.07;3.63;;;9.70;57.80;;;;;;4958563;28;20723;-75
2022/12/13 13:02:44;;;;;;;4.65;4.30;;;9.70;57.60;;;;;;4955703;28;20183;-76
2022/12/13 13:05:22;;;;;;;4.13;3.72;;;9.60;58.00;;;;;;4951630;28;20208;-76
2022/12/13 13:07:55;;;;;;;4.28;3.85;;;9.40;57.20;;;;;;4957731;28;20702;-75
2022/12/13 13:10:22;;;;;;;7.22;4.32;;;9.20;57.40;;;;;;4957566;28;20201;-75
2022/12/13 13:12:48;;;;;;;3.83;3.53;;;9.00;57.70;;;;;;4953586;28;20182;-76
2022/12/13 13:15:32;;;;;;;4.32;3.90;;;8.80;57.20;;;;;;4946801;28;20183;-76